createdAt,value
2019-03-19T00:00:34.652Z,100878.23
2019-03-19T00:01:11.624Z,100875.25
2019-03-19T00:01:47.344Z,100879.50
2019-03-19T00:02:23.809Z,100873.95
2019-03-19T00:02:59.269Z,100869.28
2019-03-19T00:03:34.707Z,100882.92
2019-03-19T00:04:10.407Z,100880.36
2019-03-19T00:04:45.887Z,100882.06
2019-03-19T00:05:21.814Z,100880.78
2019-03-19T00:05:57.245Z,100882.50
2019-03-19T00:06:32.723Z,100882.09
2019-03-19T00:07:08.584Z,100877.37
2019-03-19T00:07:44.207Z,100882.06
2019-03-19T00:08:19.684Z,100888.05
2019-03-19T00:08:55.207Z,100887.63
2019-03-19T00:09:30.682Z,100883.77
2019-03-19T00:10:07.369Z,100884.20
2019-03-19T00:10:42.944Z,100882.92
2019-03-19T00:11:18.674Z,100886.34
2019-03-19T00:11:54.138Z,100885.90
2019-03-19T00:12:30.263Z,100883.77
2019-03-19T00:13:05.793Z,100888.03
2019-03-19T00:13:41.724Z,100883.36
2019-03-19T00:14:17.283Z,100890.63
2019-03-19T00:14:52.720Z,100884.63
2019-03-19T00:15:28.611Z,100887.19
2019-03-19T00:16:04.046Z,100884.22
2019-03-19T00:16:39.834Z,100879.52
2019-03-19T00:17:15.703Z,100880.80
2019-03-19T00:17:51.424Z,100887.62
2019-03-19T00:18:27.568Z,100882.91
2019-03-19T00:19:02.989Z,100882.92
2019-03-19T00:19:38.870Z,100883.77
2019-03-19T00:20:14.660Z,100886.77
2019-03-19T00:20:50.085Z,100884.22
2019-03-19T00:21:25.933Z,100891.45
2019-03-19T00:22:01.358Z,100892.73
2019-03-19T00:22:36.795Z,100895.29
2019-03-19T00:23:12.583Z,100895.30
2019-03-19T00:23:48.027Z,100903.40
2019-03-19T00:24:23.445Z,100895.30
2019-03-19T00:24:58.914Z,100890.61
2019-03-19T00:25:34.629Z,100901.70
2019-03-19T00:26:10.122Z,100897.02
2019-03-19T00:26:45.673Z,100898.71
2019-03-19T00:27:21.099Z,100904.67
2019-03-19T00:27:56.865Z,100900.39
2019-03-19T00:28:32.335Z,100899.98
2019-03-19T00:29:08.173Z,100900.40
2019-03-19T00:29:44.353Z,100898.27
2019-03-19T00:30:21.583Z,100896.12
2019-03-19T00:30:57.489Z,100892.72
2019-03-19T00:31:32.919Z,100896.12
2019-03-19T00:32:09.216Z,100894.87
2019-03-19T00:32:44.720Z,100887.17
2019-03-19T00:33:20.487Z,100895.29
2019-03-19T00:33:56.040Z,100897.40
2019-03-19T00:34:31.755Z,100902.11
2019-03-19T00:35:07.624Z,100899.99
2019-03-19T00:35:43.105Z,100901.70
2019-03-19T00:36:18.583Z,100900.83
2019-03-19T00:36:54.017Z,100908.95
2019-03-19T00:37:29.475Z,100904.23
2019-03-19T00:38:04.981Z,100900.39
2019-03-19T00:38:40.451Z,100908.06
2019-03-19T00:39:15.914Z,100904.66
2019-03-19T00:39:51.342Z,100903.82
2019-03-19T00:40:27.528Z,100914.05
2019-03-19T00:41:02.954Z,100910.62
2019-03-19T00:41:38.447Z,100910.21
2019-03-19T00:42:13.936Z,100911.06
2019-03-19T00:42:50.097Z,100912.77
2019-03-19T00:43:25.554Z,100913.62
2019-03-19T00:44:01.395Z,100912.32
2019-03-19T00:44:36.922Z,100914.48
2019-03-19T00:45:12.893Z,100908.52
2019-03-19T00:45:48.466Z,100908.09
2019-03-19T00:46:23.912Z,100911.50
2019-03-19T00:46:59.766Z,100913.62
2019-03-19T00:47:35.247Z,100905.11
2019-03-19T00:48:11.470Z,100907.66
2019-03-19T00:48:47.550Z,100905.92
2019-03-19T00:49:23.007Z,100908.52
2019-03-19T00:49:58.541Z,100911.50
2019-03-19T00:50:34.324Z,100912.34
2019-03-19T00:51:09.841Z,100915.33
2019-03-19T00:51:45.447Z,100913.21
2019-03-19T00:52:20.886Z,100916.20
2019-03-19T00:52:56.297Z,100911.50
2019-03-19T00:53:31.739Z,100906.80
2019-03-19T00:54:07.245Z,100913.20
2019-03-19T00:54:43.387Z,100914.48
2019-03-19T00:55:18.876Z,100911.52
2019-03-19T00:55:54.687Z,100909.80
2019-03-19T00:56:30.149Z,100906.40
2019-03-19T00:57:05.598Z,100903.41
2019-03-19T00:57:41.314Z,100913.22
2019-03-19T00:58:17.104Z,100914.49
2019-03-19T00:58:52.862Z,100911.50
2019-03-19T00:59:28.286Z,100914.09
2019-03-19T01:00:05.135Z,100914.94
2019-03-19T01:00:40.884Z,100911.08
2019-03-19T01:01:16.384Z,100916.22
2019-03-19T01:01:52.253Z,100913.66
2019-03-19T01:02:28.058Z,100911.09
2019-03-19T01:03:03.596Z,100915.36
2019-03-19T01:03:39.928Z,100910.23
2019-03-19T01:04:15.417Z,100908.53
2019-03-19T01:04:50.867Z,100911.50
2019-03-19T01:05:26.304Z,100913.22
2019-03-19T01:06:02.178Z,100911.52
2019-03-19T01:06:38.148Z,100913.22
2019-03-19T01:07:13.617Z,100910.64
2019-03-19T01:07:49.852Z,100912.78
2019-03-19T01:08:25.278Z,100914.48
2019-03-19T01:09:00.705Z,100906.38
2019-03-19T01:09:36.312Z,100904.25
2019-03-19T01:10:12.575Z,100900.86
2019-03-19T01:10:48.675Z,100902.98
2019-03-19T01:11:24.733Z,100903.40
2019-03-19T01:12:00.194Z,100913.20
2019-03-19T01:12:35.707Z,100900.84
2019-03-19T01:13:11.270Z,100912.81
2019-03-19T01:13:47.282Z,100910.23
2019-03-19T01:14:22.714Z,100909.39
2019-03-19T01:14:58.146Z,100914.08
2019-03-19T01:15:33.607Z,100911.10
2019-03-19T01:16:09.405Z,100916.64
2019-03-19T01:16:44.975Z,100920.03
2019-03-19T01:17:20.840Z,100912.80
2019-03-19T01:17:56.277Z,100919.63
2019-03-19T01:18:31.702Z,100915.77
2019-03-19T01:19:07.173Z,100908.52
2019-03-19T01:19:42.663Z,100909.36
2019-03-19T01:20:18.488Z,100908.52
2019-03-19T01:20:54.254Z,100900.42
2019-03-19T01:21:29.975Z,100901.68
2019-03-19T01:22:05.723Z,100829.58
2019-03-19T01:22:41.556Z,100898.30
2019-03-19T01:23:17.306Z,100901.70
2019-03-19T01:23:53.042Z,100904.70
2019-03-19T01:24:29.302Z,100905.98
2019-03-19T01:25:05.235Z,100905.98
2019-03-19T01:25:54.455Z,100909.38
2019-03-19T01:26:18.113Z,100902.55
2019-03-19T01:26:54.019Z,100908.95
2019-03-19T01:27:29.445Z,100909.81
2019-03-19T01:28:05.311Z,100907.67
2019-03-19T01:28:41.320Z,100907.66
2019-03-19T01:29:16.784Z,100908.95
2019-03-19T01:29:52.825Z,100912.36
2019-03-19T01:30:28.539Z,100905.11
2019-03-19T01:31:04.100Z,100906.82
2019-03-19T01:31:39.719Z,100916.21
2019-03-19T01:32:15.559Z,100906.39
2019-03-19T01:32:51.100Z,100905.55
2019-03-19T01:33:27.137Z,100905.55
2019-03-19T01:34:02.938Z,100910.22
2019-03-19T01:34:38.434Z,100905.98
2019-03-19T01:35:14.278Z,100896.17
2019-03-19T01:35:50.080Z,100898.30
2019-03-19T01:36:25.515Z,100905.11
2019-03-19T01:37:00.970Z,100902.13
2019-03-19T01:37:36.420Z,100900.42
2019-03-19T01:38:12.272Z,100900.86
2019-03-19T01:38:48.125Z,100905.56
2019-03-19T01:39:23.836Z,100905.13
2019-03-19T01:39:59.270Z,100905.97
2019-03-19T01:40:34.711Z,100905.55
2019-03-19T01:41:10.461Z,100905.11
2019-03-19T01:41:45.965Z,100908.95
2019-03-19T01:42:21.734Z,100910.68
2019-03-19T01:42:57.506Z,100918.77
2019-03-19T01:43:32.939Z,100918.77
2019-03-19T01:44:08.785Z,100915.34
2019-03-19T01:44:44.376Z,100918.36
2019-03-19T01:45:19.805Z,100914.50
2019-03-19T01:45:55.555Z,100914.94
2019-03-19T01:46:31.022Z,100912.78
2019-03-19T01:47:06.636Z,100913.20
2019-03-19T01:47:42.872Z,100911.50
2019-03-19T01:48:18.434Z,100910.67
2019-03-19T01:48:54.170Z,100913.66
2019-03-19T01:49:29.901Z,100917.48
2019-03-19T01:50:06.942Z,100908.94
2019-03-19T01:50:42.817Z,100918.34
2019-03-19T01:51:18.315Z,100917.08
2019-03-19T01:51:54.106Z,100917.08
2019-03-19T01:52:29.827Z,100922.17
2019-03-19T01:53:05.349Z,100918.77
2019-03-19T01:53:40.953Z,100914.50
2019-03-19T01:54:17.465Z,100911.11
2019-03-19T01:54:52.897Z,100916.23
2019-03-19T01:55:28.340Z,100910.22
2019-03-19T01:56:05.451Z,100909.41
2019-03-19T01:56:41.361Z,100910.67
2019-03-19T01:57:17.094Z,100909.80
2019-03-19T01:57:52.525Z,100910.23
2019-03-19T01:58:28.429Z,100910.67
2019-03-19T01:59:03.887Z,100902.55
2019-03-19T01:59:39.671Z,100903.83
2019-03-19T02:00:15.238Z,100905.56
2019-03-19T02:00:51.082Z,100914.08
2019-03-19T02:01:26.556Z,100911.94
2019-03-19T02:02:01.999Z,100911.11
2019-03-19T02:02:38.011Z,100915.78
2019-03-19T02:03:13.501Z,100918.77
2019-03-19T02:03:49.360Z,100909.38
2019-03-19T02:04:24.788Z,100915.34
2019-03-19T02:05:00.631Z,100913.22
2019-03-19T02:05:36.936Z,100917.08
2019-03-19T02:06:12.825Z,100912.81
2019-03-19T02:06:48.263Z,100911.95
2019-03-19T02:07:23.965Z,100909.80
2019-03-19T02:07:59.379Z,100908.94
2019-03-19T02:08:35.155Z,100887.60
2019-03-19T02:09:11.023Z,100902.98
2019-03-19T02:09:46.840Z,100904.69
2019-03-19T02:10:22.272Z,100896.14
2019-03-19T02:10:57.703Z,100900.00
2019-03-19T02:11:33.157Z,100901.26
2019-03-19T02:12:08.623Z,100900.42
2019-03-19T02:12:44.517Z,100899.13
2019-03-19T02:13:20.324Z,100904.69
2019-03-19T02:13:55.903Z,100896.16
2019-03-19T02:14:31.325Z,100902.55
2019-03-19T02:15:07.195Z,100900.42
2019-03-19T02:15:42.827Z,100904.66
2019-03-19T02:16:18.292Z,100901.70
2019-03-19T02:16:53.723Z,100907.66
2019-03-19T02:17:29.140Z,100901.27
2019-03-19T02:18:04.945Z,100907.67
2019-03-19T02:18:40.554Z,100907.23
2019-03-19T02:19:16.053Z,100905.13
2019-03-19T02:19:51.482Z,100909.80
2019-03-19T02:20:26.911Z,100903.41
2019-03-19T02:21:03.037Z,100910.66
2019-03-19T02:21:38.905Z,100902.12
2019-03-19T02:22:14.345Z,100909.80
2019-03-19T02:22:50.474Z,100908.09
2019-03-19T02:23:25.926Z,100910.66
2019-03-19T02:24:01.356Z,100909.38
2019-03-19T02:24:36.798Z,100903.84
2019-03-19T02:25:12.618Z,100911.52
2019-03-19T02:25:48.186Z,100905.97
2019-03-19T02:26:23.643Z,100904.69
2019-03-19T02:26:59.084Z,100903.41
2019-03-19T02:27:34.621Z,100901.27
2019-03-19T02:28:10.709Z,100903.41
2019-03-19T02:28:46.654Z,100903.42
2019-03-19T02:29:22.113Z,100900.43
2019-03-19T02:29:57.550Z,100904.27
2019-03-19T02:30:33.664Z,100900.42
2019-03-19T02:31:09.152Z,100897.44
2019-03-19T02:31:45.011Z,100902.13
2019-03-19T02:32:20.460Z,100902.56
2019-03-19T02:32:55.885Z,100910.66
2019-03-19T02:33:31.351Z,100909.39
2019-03-19T02:34:06.804Z,100908.97
2019-03-19T02:34:42.468Z,100911.08
2019-03-19T02:35:17.964Z,100910.66
2019-03-19T02:35:53.447Z,100914.06
2019-03-19T02:36:29.321Z,100914.49
2019-03-19T02:37:05.092Z,100911.93
2019-03-19T02:37:40.576Z,100918.76
2019-03-19T02:38:16.813Z,100917.05
2019-03-19T02:38:52.253Z,100917.06
2019-03-19T02:39:28.044Z,100921.34
2019-03-19T02:40:03.513Z,100922.59
2019-03-19T02:40:39.096Z,100925.19
2019-03-19T02:41:14.584Z,100923.05
2019-03-19T02:41:50.086Z,100929.45
2019-03-19T02:42:25.509Z,100928.16
2019-03-19T02:43:00.946Z,100926.02
2019-03-19T02:43:36.396Z,100929.88
2019-03-19T02:44:11.912Z,100925.16
2019-03-19T02:44:47.699Z,100921.34
2019-03-19T02:45:23.531Z,100925.61
2019-03-19T02:45:59.087Z,100925.59
2019-03-19T02:46:34.534Z,100926.02
2019-03-19T02:47:10.362Z,100921.75
2019-03-19T02:47:45.858Z,100923.88
2019-03-19T02:48:21.270Z,100922.20
2019-03-19T02:48:56.716Z,100922.18
2019-03-19T02:49:32.133Z,100923.45
2019-03-19T02:50:08.591Z,100926.88
2019-03-19T02:50:44.147Z,100932.84
2019-03-19T02:51:19.572Z,100928.58
2019-03-19T02:51:55.011Z,100934.12
2019-03-19T02:52:30.439Z,100925.18
2019-03-19T02:53:05.951Z,100928.60
2019-03-19T02:53:41.762Z,100925.61
2019-03-19T02:54:17.578Z,100929.03
2019-03-19T02:54:53.001Z,100928.14
2019-03-19T02:55:28.771Z,100933.30
2019-03-19T02:56:04.208Z,100929.00
2019-03-19T02:56:39.706Z,100933.28
2019-03-19T02:57:15.227Z,100929.44
2019-03-19T02:57:51.100Z,100932.42
2019-03-19T02:58:26.529Z,100932.00
2019-03-19T02:59:01.968Z,100926.02
2019-03-19T02:59:37.849Z,100933.28
2019-03-19T03:00:13.870Z,100926.03
2019-03-19T03:00:49.691Z,100932.44
2019-03-19T03:01:25.173Z,100936.28
2019-03-19T03:02:01.042Z,100937.97
2019-03-19T03:02:36.594Z,100929.44
2019-03-19T03:03:12.369Z,100933.70
2019-03-19T03:03:48.247Z,100934.56
2019-03-19T03:04:23.761Z,100940.12
2019-03-19T03:04:59.224Z,100932.02
2019-03-19T03:05:34.670Z,100937.12
2019-03-19T03:06:10.456Z,100936.29
2019-03-19T03:06:45.986Z,100940.12
2019-03-19T03:07:21.417Z,100946.08
2019-03-19T03:07:56.870Z,100945.23
2019-03-19T03:08:32.438Z,100944.38
2019-03-19T03:09:08.436Z,100945.66
2019-03-19T03:09:43.925Z,100948.64
2019-03-19T03:10:19.734Z,100949.50
2019-03-19T03:10:55.188Z,100948.23
2019-03-19T03:11:30.986Z,100946.53
2019-03-19T03:12:06.448Z,100944.38
2019-03-19T03:12:42.020Z,100943.09
2019-03-19T03:13:17.548Z,100952.47
2019-03-19T03:13:53.369Z,100950.34
2019-03-19T03:14:29.173Z,100945.23
2019-03-19T03:15:04.783Z,100954.19
2019-03-19T03:15:40.219Z,100952.47
2019-03-19T03:16:15.688Z,100952.90
2019-03-19T03:16:51.254Z,100949.06
2019-03-19T03:17:26.954Z,100954.61
2019-03-19T03:18:02.406Z,100948.19
2019-03-19T03:18:37.870Z,100948.19
2019-03-19T03:19:13.676Z,100945.66
2019-03-19T03:19:49.140Z,100950.34
2019-03-19T03:20:24.927Z,100952.47
2019-03-19T03:21:00.379Z,100951.19
2019-03-19T03:21:36.121Z,100955.43
2019-03-19T03:22:11.661Z,100957.59
2019-03-19T03:22:47.122Z,100955.87
2019-03-19T03:23:22.958Z,100955.44
2019-03-19T03:23:58.833Z,100959.70
2019-03-19T03:24:34.509Z,100957.15
2019-03-19T03:25:10.076Z,100957.98
2019-03-19T03:25:45.623Z,100953.31
2019-03-19T03:26:21.105Z,100955.47
2019-03-19T03:26:56.589Z,100958.00
2019-03-19T03:27:32.109Z,100958.86
2019-03-19T03:28:07.543Z,100952.89
2019-03-19T03:28:43.079Z,100957.17
2019-03-19T03:29:19.496Z,100965.24
2019-03-19T03:29:55.020Z,100965.23
2019-03-19T03:30:30.473Z,100974.17
2019-03-19T03:31:06.298Z,100971.59
2019-03-19T03:31:41.805Z,100971.58
2019-03-19T03:32:17.384Z,100969.42
2019-03-19T03:32:52.844Z,100977.09
2019-03-19T03:33:28.741Z,100979.66
2019-03-19T03:34:04.368Z,100980.92
2019-03-19T03:34:39.812Z,100981.33
2019-03-19T03:35:15.273Z,100975.78
2019-03-19T03:35:51.348Z,100967.23
2019-03-19T03:36:26.777Z,100967.25
2019-03-19T03:37:03.036Z,100974.52
2019-03-19T03:37:38.876Z,100965.96
2019-03-19T03:38:14.710Z,100977.06
2019-03-19T03:38:50.265Z,100978.30
2019-03-19T03:39:25.718Z,100972.83
2019-03-19T03:40:01.239Z,100971.17
2019-03-19T03:40:36.642Z,100974.55
2019-03-19T03:41:12.512Z,100981.34
2019-03-19T03:41:47.994Z,100974.06
2019-03-19T03:42:23.441Z,100971.47
2019-03-19T03:42:58.882Z,100974.48
2019-03-19T03:43:34.409Z,100986.86
2019-03-19T03:44:09.850Z,100983.43
2019-03-19T03:44:45.774Z,100982.14
2019-03-19T03:45:21.869Z,100983.86
2019-03-19T03:45:57.317Z,100980.00
2019-03-19T03:46:33.328Z,100979.99
2019-03-19T03:47:08.766Z,100981.69
2019-03-19T03:47:44.354Z,100986.83
2019-03-19T03:48:19.800Z,100983.81
2019-03-19T03:48:55.309Z,100986.81
2019-03-19T03:49:30.764Z,100982.95
2019-03-19T03:50:06.604Z,100992.33
2019-03-19T03:50:42.218Z,100993.17
2019-03-19T03:51:17.727Z,100990.20
2019-03-19T03:51:53.156Z,100991.89
2019-03-19T03:52:28.587Z,100984.22
2019-03-19T03:53:04.529Z,100990.64
2019-03-19T03:53:39.994Z,100990.17
2019-03-19T03:54:15.870Z,100982.97
2019-03-19T03:54:51.316Z,100990.61
2019-03-19T03:55:26.775Z,100994.00
2019-03-19T03:56:02.485Z,100994.41
2019-03-19T03:56:38.390Z,100990.54
2019-03-19T03:57:14.198Z,100992.24
2019-03-19T03:57:49.660Z,100993.12
2019-03-19T03:58:25.593Z,100996.06
2019-03-19T03:59:01.544Z,100987.09
2019-03-19T03:59:37.369Z,100996.03
2019-03-19T04:00:13.911Z,100996.06
2019-03-19T04:00:49.351Z,100992.65
2019-03-19T04:01:25.069Z,100997.78
2019-03-19T04:02:00.503Z,101003.31
2019-03-19T04:02:36.049Z,101001.16
2019-03-19T04:03:11.856Z,100999.46
2019-03-19T04:03:47.437Z,101004.53
2019-03-19T04:04:23.268Z,101003.23
2019-03-19T04:04:58.861Z,101007.92
2019-03-19T04:05:34.340Z,101003.23
2019-03-19T04:06:10.081Z,101007.50
2019-03-19T04:06:45.903Z,101008.36
2019-03-19T04:07:21.344Z,101008.36
2019-03-19T04:07:57.594Z,101006.63
2019-03-19T04:08:33.084Z,101004.90
2019-03-19T04:09:09.394Z,101011.74
2019-03-19T04:09:45.168Z,101015.16
2019-03-19T04:10:20.626Z,101019.42
2019-03-19T04:10:56.047Z,101021.09
2019-03-19T04:11:31.821Z,101014.28
2019-03-19T04:12:07.285Z,101019.83
2019-03-19T04:12:42.764Z,101018.94
2019-03-19T04:13:18.261Z,101015.95
2019-03-19T04:13:53.702Z,101024.05
2019-03-19T04:14:29.127Z,101024.92
2019-03-19T04:15:04.928Z,101020.22
2019-03-19T04:15:40.450Z,101022.37
2019-03-19T04:16:15.989Z,101016.34
2019-03-19T04:16:51.447Z,101031.73
2019-03-19T04:17:27.292Z,101019.34
2019-03-19T04:18:03.175Z,101017.66
2019-03-19T04:18:39.373Z,101023.20
2019-03-19T04:19:14.871Z,101025.75
2019-03-19T04:19:50.405Z,101026.19
2019-03-19T04:20:25.910Z,101029.98
2019-03-19T04:21:01.775Z,101028.25
2019-03-19T04:21:37.303Z,101029.56
2019-03-19T04:22:15.763Z,101028.28
2019-03-19T04:22:49.982Z,101032.95
2019-03-19T04:23:25.774Z,101029.53
2019-03-19T04:24:01.213Z,101030.40
2019-03-19T04:24:36.670Z,101026.97
2019-03-19T04:25:12.654Z,101026.98
2019-03-19T04:25:48.464Z,101035.52
2019-03-19T04:26:23.904Z,101028.23
2019-03-19T04:26:59.464Z,101023.98
2019-03-19T04:27:35.166Z,101025.27
2019-03-19T04:28:12.080Z,101026.56
2019-03-19T04:28:51.465Z,101026.14
2019-03-19T04:29:26.906Z,101035.50
2019-03-19T04:30:02.768Z,101033.32
2019-03-19T04:30:38.722Z,101036.28
2019-03-19T04:31:14.300Z,101027.75
2019-03-19T04:31:49.785Z,101034.98
2019-03-19T04:32:25.262Z,101036.23
2019-03-19T04:33:00.847Z,101032.81
2019-03-19T04:33:36.351Z,101039.15
2019-03-19T04:34:12.224Z,101037.02
2019-03-19T04:34:48.071Z,101040.34
2019-03-19T04:35:23.515Z,101046.73
2019-03-19T04:35:58.978Z,101052.27
2019-03-19T04:36:34.764Z,101048.83
2019-03-19T04:37:10.226Z,101047.56
2019-03-19T04:37:45.712Z,101040.91
2019-03-19T04:38:21.161Z,101043.89
2019-03-19T04:38:57.182Z,101048.53
2019-03-19T04:39:33.421Z,101050.22
2019-03-19T04:40:10.321Z,101050.16
2019-03-19T04:40:46.243Z,101054.83
2019-03-19T04:41:21.717Z,101054.05
2019-03-19T04:41:57.274Z,101060.86
2019-03-19T04:42:32.838Z,101062.14
2019-03-19T04:43:08.266Z,101052.88
2019-03-19T04:43:44.241Z,101051.60
2019-03-19T04:44:20.022Z,101068.25
2019-03-19T04:44:55.755Z,101055.81
2019-03-19T04:45:32.214Z,101055.79
2019-03-19T04:46:08.362Z,101060.42
2019-03-19T04:46:44.546Z,101064.20
2019-03-19T04:47:20.254Z,101060.36
2019-03-19T04:47:55.915Z,101062.05
2019-03-19T04:48:31.750Z,101064.97
2019-03-19T04:49:07.676Z,101062.43
2019-03-19T04:49:43.543Z,101071.81
2019-03-19T04:50:19.047Z,101074.32
2019-03-19T04:50:54.532Z,101069.15
2019-03-19T04:51:29.974Z,101067.88
2019-03-19T04:52:05.774Z,101076.81
2019-03-19T04:52:41.538Z,101078.08
2019-03-19T04:53:17.039Z,101083.19
2019-03-19T04:53:53.240Z,101073.39
2019-03-19T04:54:29.040Z,101081.02
2019-03-19T04:55:05.808Z,101075.89
2019-03-19T04:55:41.559Z,101076.73
2019-03-19T04:56:17.760Z,101080.13
2019-03-19T04:56:53.585Z,101079.72
2019-03-19T04:57:29.024Z,101084.80
2019-03-19T04:58:04.816Z,101078.87
2019-03-19T04:58:40.616Z,101084.04
2019-03-19T04:59:16.495Z,101080.20
2019-03-19T04:59:51.972Z,101080.98
2019-03-19T05:00:27.732Z,101084.87
2019-03-19T05:01:03.158Z,101086.98
2019-03-19T05:01:38.621Z,101079.72
2019-03-19T05:02:14.397Z,101079.72
2019-03-19T05:02:49.917Z,101084.82
2019-03-19T05:03:26.074Z,101090.32
2019-03-19T05:04:01.509Z,101091.11
2019-03-19T05:04:37.368Z,101090.28
2019-03-19T05:05:14.432Z,101092.83
2019-03-19T05:05:50.833Z,101091.18
2019-03-19T05:06:26.685Z,101096.28
2019-03-19T05:07:02.581Z,101090.34
2019-03-19T05:07:38.208Z,101093.30
2019-03-19T05:08:13.978Z,101089.88
2019-03-19T05:08:49.443Z,101096.67
2019-03-19T05:09:25.650Z,101099.30
2019-03-19T05:10:01.382Z,101089.86
2019-03-19T05:10:36.849Z,101096.23
2019-03-19T05:11:12.319Z,101097.93
2019-03-19T05:11:48.087Z,101098.42
2019-03-19T05:12:23.643Z,101094.08
2019-03-19T05:13:00.808Z,101095.87
2019-03-19T05:13:36.645Z,101094.56
2019-03-19T05:14:12.551Z,101090.72
2019-03-19T05:14:48.043Z,101097.09
2019-03-19T05:15:23.523Z,101095.80
2019-03-19T05:15:59.158Z,101097.06
2019-03-19T05:16:34.714Z,101096.22
2019-03-19T05:17:10.474Z,101096.23
2019-03-19T05:17:46.389Z,101100.05
2019-03-19T05:18:21.872Z,101095.37
2019-03-19T05:18:57.647Z,101095.38
2019-03-19T05:19:33.153Z,101098.39
2019-03-19T05:20:09.463Z,101096.27
2019-03-19T05:20:45.076Z,101089.86
2019-03-19T05:21:20.893Z,101091.13
2019-03-19T05:21:56.384Z,101094.13
2019-03-19T05:22:31.906Z,101098.79
2019-03-19T05:23:07.890Z,101094.05
2019-03-19T05:23:43.342Z,101098.75
2019-03-19T05:24:18.793Z,101094.48
2019-03-19T05:24:54.591Z,101094.86
2019-03-19T05:25:30.039Z,101099.13
2019-03-19T05:26:05.512Z,101097.58
2019-03-19T05:26:41.047Z,101103.62
2019-03-19T05:27:16.895Z,101104.80
2019-03-19T05:27:52.458Z,101106.03
2019-03-19T05:28:27.959Z,101108.89
2019-03-19T05:29:03.428Z,101107.22
2019-03-19T05:29:38.944Z,101103.80
2019-03-19T05:30:14.482Z,101108.55
2019-03-19T05:30:49.970Z,101114.94
2019-03-19T05:31:25.703Z,101109.80
2019-03-19T05:32:01.153Z,101114.63
2019-03-19T05:32:36.612Z,101115.02
2019-03-19T05:33:12.486Z,101107.72
2019-03-19T05:33:47.996Z,101113.23
2019-03-19T05:34:23.427Z,101107.62
2019-03-19T05:34:58.922Z,101114.87
2019-03-19T05:35:34.378Z,101108.88
2019-03-19T05:36:10.084Z,101108.05
2019-03-19T05:36:46.350Z,101108.00
2019-03-19T05:37:21.774Z,101107.95
2019-03-19T05:37:57.263Z,101119.06
2019-03-19T05:38:32.743Z,101111.45
2019-03-19T05:39:08.611Z,101113.55
2019-03-19T05:39:44.113Z,101113.95
2019-03-19T05:40:22.342Z,101111.80
2019-03-19T05:40:58.068Z,101113.10
2019-03-19T05:41:33.948Z,101118.63
2019-03-19T05:42:09.381Z,101121.66
2019-03-19T05:42:45.057Z,101115.66
2019-03-19T05:43:20.518Z,101122.50
2019-03-19T05:43:56.261Z,101116.55
2019-03-19T05:44:31.696Z,101121.23
2019-03-19T05:45:09.433Z,101118.70
2019-03-19T05:45:45.227Z,101125.09
2019-03-19T05:46:20.684Z,101122.13
2019-03-19T05:46:56.145Z,101125.95
2019-03-19T05:47:37.333Z,101122.56
2019-03-19T05:48:09.622Z,101123.88
2019-03-19T05:48:45.421Z,101126.48
2019-03-19T05:49:21.304Z,101130.28
2019-03-19T05:49:57.056Z,101129.83
2019-03-19T05:50:32.492Z,101126.41
2019-03-19T05:51:07.964Z,101121.68
2019-03-19T05:51:43.601Z,101130.18
2019-03-19T05:52:19.284Z,101131.02
2019-03-19T05:52:54.728Z,101126.70
2019-03-19T05:53:30.185Z,101129.73
2019-03-19T05:54:05.931Z,101134.94
2019-03-19T05:54:41.386Z,101132.81
2019-03-19T05:55:17.059Z,101127.64
2019-03-19T05:55:52.617Z,101132.36
2019-03-19T05:56:28.515Z,101128.92
2019-03-19T05:57:04.710Z,101134.52
2019-03-19T05:57:49.505Z,101137.88
2019-03-19T05:58:18.122Z,101136.20
2019-03-19T05:58:53.575Z,101139.22
2019-03-19T05:59:29.010Z,101140.02
2019-03-19T06:00:05.257Z,101147.27
2019-03-19T06:00:40.702Z,101148.59
2019-03-19T06:01:16.191Z,101142.25
2019-03-19T06:01:51.674Z,101149.48
2019-03-19T06:02:27.547Z,101149.06
2019-03-19T06:03:03.238Z,101144.38
2019-03-19T06:03:39.530Z,101154.20
2019-03-19T06:04:15.451Z,101138.02
2019-03-19T06:04:51.127Z,101144.43
2019-03-19T06:05:26.957Z,101143.57
2019-03-19T06:06:03.176Z,101143.59
2019-03-19T06:06:39.058Z,101138.47
2019-03-19T06:07:14.525Z,101142.34
2019-03-19T06:07:50.311Z,101144.91
2019-03-19T06:08:25.751Z,101144.48
2019-03-19T06:09:01.194Z,101146.19
2019-03-19T06:09:36.641Z,101142.37
2019-03-19T06:10:12.782Z,101144.98
2019-03-19T06:10:48.617Z,101148.81
2019-03-19T06:11:24.098Z,101145.85
2019-03-19T06:12:00.301Z,101150.18
2019-03-19T06:12:35.735Z,101144.66
2019-03-19T06:13:11.198Z,101148.51
2019-03-19T06:13:46.768Z,101151.04
2019-03-19T06:14:22.265Z,101150.17
2019-03-19T06:14:57.725Z,101155.70
2019-03-19T06:15:33.495Z,101153.12
2019-03-19T06:16:09.941Z,101152.27
2019-03-19T06:16:45.602Z,101155.70
2019-03-19T06:17:21.114Z,101157.37
2019-03-19T06:17:56.549Z,101155.73
2019-03-19T06:18:35.307Z,101155.70
2019-03-19T06:19:09.131Z,101151.89
2019-03-19T06:19:45.639Z,101151.45
2019-03-19T06:20:21.135Z,101152.39
2019-03-19T06:20:56.702Z,101155.85
2019-03-19T06:21:32.135Z,101152.86
2019-03-19T06:22:07.568Z,101149.03
2019-03-19T06:22:43.571Z,101144.34
2019-03-19T06:23:19.047Z,101149.06
2019-03-19T06:23:54.473Z,101150.36
2019-03-19T06:24:30.733Z,101143.51
2019-03-19T06:25:06.696Z,101148.20
2019-03-19T06:25:42.842Z,101152.52
2019-03-19T06:26:18.768Z,101153.30
2019-03-19T06:26:54.517Z,101152.46
2019-03-19T06:27:30.274Z,101155.44
2019-03-19T06:28:06.405Z,101155.48
2019-03-19T06:28:42.377Z,101154.23
2019-03-19T06:29:17.882Z,101153.73
2019-03-19T06:29:53.650Z,101151.61
2019-03-19T06:30:29.137Z,101156.28
2019-03-19T06:31:04.985Z,101149.03
2019-03-19T06:31:40.542Z,101152.15
2019-03-19T06:32:16.033Z,101156.46
2019-03-19T06:32:51.627Z,101156.39
2019-03-19T06:33:27.105Z,101156.37
2019-03-19T06:34:02.596Z,101159.09
2019-03-19T06:34:38.384Z,101161.63
2019-03-19T06:35:13.952Z,101151.76
2019-03-19T06:35:49.581Z,101160.70
2019-03-19T06:36:24.970Z,101159.81
2019-03-19T06:37:00.418Z,101166.23
2019-03-19T06:37:35.871Z,101167.59
2019-03-19T06:38:11.666Z,101164.13
2019-03-19T06:38:47.310Z,101170.99
2019-03-19T06:39:22.809Z,101173.21
2019-03-19T06:39:58.273Z,101172.05
2019-03-19T06:40:34.106Z,101169.43
2019-03-19T06:41:09.583Z,101168.14
2019-03-19T06:41:45.222Z,101170.24
2019-03-19T06:42:20.711Z,101173.62
2019-03-19T06:42:56.669Z,101177.45
2019-03-19T06:43:32.098Z,101173.15
2019-03-19T06:44:07.530Z,101174.41
2019-03-19T06:44:43.309Z,101178.26
2019-03-19T06:45:19.538Z,101174.09
2019-03-19T06:45:55.428Z,101172.78
2019-03-19T06:46:30.924Z,101174.08
2019-03-19T06:47:06.738Z,101176.17
2019-03-19T06:47:42.254Z,101180.03